CheckWX is a tool to help pilots better visualize weather data.  It is not intended as a substitute for an official pre-flight weather briefing.

13:56:08 UTC

C75 METAR
Marshall County Airport
Lacon, Illinois, USA
Current

21 mins ago

KC75 261335Z AUTO 32016G21KT 10SM CLR 11/03 A2987 RMK AO2 T01050029
Observed
Apr-26 @ 13:35 UTC
Wind
  • 320° at 16 KTS
  • Gusting to 21 KTS
Visibility
10 SM
Flight Rules
VFR
Cloud Levels
  • Clear skies
Temperature
11°C / 52°F
Dewpoint
C / 37°F
Humidity
58%
Altimeter
29.87" Hg
Pressure
1011.52 hPa
Previous

41 mins ago

KC75 261315Z AUTO 32017G22KT 10SM CLR 10/03 A2987 RMK AO2 T01000030
Observed
Apr-26 @ 13:15 UTC
Wind
  • 320° at 17 KTS
  • Gusting to 22 KTS
Visibility
10 SM
Flight Rules
VFR
Cloud Levels
  • Clear skies
Temperature
10°C / 50°F
Dewpoint
C / 37°F
Humidity
62%
Altimeter
29.87" Hg
Pressure
1011.52 hPa
Previous

1 hour ago

KC75 261255Z AUTO 32014G25KT 10SM CLR 10/03 A2986 RMK AO2 T00950032
Observed
Apr-26 @ 12:55 UTC
Wind
  • 320° at 14 KTS
  • Gusting to 25 KTS
Visibility
10 SM
Flight Rules
VFR
Cloud Levels
  • Clear skies
Temperature
10°C / 50°F
Dewpoint
C / 37°F
Humidity
62%
Altimeter
29.86" Hg
Pressure
1011.22 hPa